createdAt,value
2023-05-01T00:00:56.977Z,60.15
2023-05-01T00:01:56.867Z,60.05
2023-05-01T00:02:56.876Z,59.97
2023-05-01T00:03:56.919Z,59.93
2023-05-01T00:04:56.741Z,59.96
2023-05-01T00:05:56.570Z,59.76
2023-05-01T00:06:56.490Z,59.79
2023-05-01T00:07:56.410Z,59.49
2023-05-01T00:08:56.331Z,60.30
2023-05-01T00:09:56.502Z,60.96
2023-05-01T00:10:56.262Z,61.10
2023-05-01T00:11:56.308Z,61.51
2023-05-01T00:12:56.171Z,61.39
2023-05-01T00:13:56.135Z,61.15
2023-05-01T00:14:56.203Z,61.05
2023-05-01T00:15:56.423Z,61.20
2023-05-01T00:16:56.590Z,61.20
2023-05-01T00:17:56.709Z,60.97
2023-05-01T00:18:56.779Z,60.37
2023-05-01T00:19:57.234Z,60.17
2023-05-01T00:20:56.820Z,60.27
2023-05-01T00:21:56.764Z,60.31
2023-05-01T00:22:56.712Z,60.54
2023-05-01T00:23:56.739Z,61.64
2023-05-01T00:24:56.691Z,61.97
2023-05-01T00:25:56.944Z,62.08
2023-05-01T00:26:57.118Z,61.98
2023-05-01T00:27:57.249Z,61.69
2023-05-01T00:28:57.415Z,61.43
2023-05-01T00:29:57.888Z,61.83
2023-05-01T00:30:57.501Z,61.99
2023-05-01T00:31:57.531Z,61.72
2023-05-01T00:32:57.400Z,62.06
2023-05-01T00:33:57.418Z,62.08
2023-05-01T00:34:57.368Z,62.23
2023-05-01T00:35:57.629Z,62.19
2023-05-01T00:36:57.719Z,62.12
2023-05-01T00:37:57.872Z,61.95
2023-05-01T00:38:58.097Z,62.02
2023-05-01T00:39:58.586Z,61.94
2023-05-01T00:40:58.282Z,61.66
2023-05-01T00:41:58.132Z,61.60
2023-05-01T00:42:58.071Z,61.42
2023-05-01T00:43:57.993Z,61.28
2023-05-01T00:44:58.072Z,61.32
2023-05-01T00:45:58.353Z,61.25
2023-05-01T00:46:58.606Z,61.62
2023-05-01T00:47:58.912Z,62.02
2023-05-01T00:48:58.921Z,61.96
2023-05-01T00:49:59.186Z,61.76
2023-05-01T00:50:59.346Z,61.68
2023-05-01T00:51:59.555Z,61.81
2023-05-01T00:52:59.802Z,61.72
2023-05-01T00:53:59.959Z,61.49
2023-05-01T00:55:00.218Z,61.60
2023-05-01T00:56:00.360Z,61.54
2023-05-01T00:57:00.562Z,61.57
2023-05-01T00:58:00.754Z,61.57
2023-05-01T00:59:00.941Z,61.40
2023-05-01T01:00:01.148Z,61.23
2023-05-01T01:01:01.370Z,60.71
2023-05-01T01:02:01.453Z,60.64
2023-05-01T01:03:01.829Z,61.08
2023-05-01T01:04:01.835Z,61.32
2023-05-01T01:05:01.963Z,61.39
2023-05-01T01:06:02.251Z,61.54
2023-05-01T01:07:02.403Z,61.58
2023-05-01T01:08:02.576Z,61.60
2023-05-01T01:09:02.787Z,61.66
2023-05-01T01:10:03.021Z,61.83
2023-05-01T01:11:03.207Z,61.49
2023-05-01T01:12:03.398Z,61.21
2023-05-01T01:13:03.603Z,61.14
2023-05-01T01:14:03.899Z,61.30
2023-05-01T01:15:03.849Z,61.40
2023-05-01T01:16:04.121Z,61.15
2023-05-01T01:17:04.384Z,61.15
2023-05-01T01:18:04.413Z,60.98
2023-05-01T01:19:04.558Z,61.18
2023-05-01T01:20:04.776Z,61.18
2023-05-01T01:21:04.948Z,61.40
2023-05-01T01:22:05.120Z,61.05
2023-05-01T01:23:05.278Z,61.15
2023-05-01T01:24:05.437Z,61.28
2023-05-01T01:25:05.629Z,61.32
2023-05-01T01:26:05.836Z,61.19
2023-05-01T01:27:05.900Z,61.31
2023-05-01T01:28:06.129Z,61.10
2023-05-01T01:29:06.306Z,61.06
2023-05-01T01:30:06.505Z,60.95
2023-05-01T01:31:06.744Z,61.06
2023-05-01T01:32:06.766Z,61.13
2023-05-01T01:33:06.987Z,61.20
2023-05-01T01:34:07.148Z,60.96
2023-05-01T01:35:07.319Z,61.19
2023-05-01T01:36:07.660Z,61.73
2023-05-01T01:37:07.617Z,62.07
2023-05-01T01:38:07.845Z,62.37
2023-05-01T01:39:08.004Z,62.25
2023-05-01T01:40:08.160Z,62.23
2023-05-01T01:41:08.298Z,62.14
2023-05-01T01:42:08.478Z,62.23
2023-05-01T01:43:08.650Z,62.31
2023-05-01T01:44:08.897Z,62.26
2023-05-01T01:45:08.895Z,62.33
2023-05-01T01:46:09.169Z,62.74
2023-05-01T01:47:09.236Z,62.70
2023-05-01T01:48:09.436Z,62.49
2023-05-01T01:49:09.535Z,62.51
2023-05-01T01:50:09.700Z,62.27
2023-05-01T01:51:09.876Z,62.11
2023-05-01T01:52:09.922Z,62.21
2023-05-01T01:53:10.167Z,62.17
2023-05-01T01:54:10.368Z,62.00
2023-05-01T01:55:10.496Z,62.08
2023-05-01T01:56:10.576Z,62.12
2023-05-01T01:57:10.777Z,61.91
2023-05-01T01:58:10.936Z,61.79
2023-05-01T01:59:11.107Z,61.66
2023-05-01T02:00:11.420Z,61.71
2023-05-01T02:01:11.443Z,61.60
2023-05-01T02:02:11.683Z,61.64
2023-05-01T02:03:11.802Z,61.73
2023-05-01T02:04:12.015Z,61.87
2023-05-01T02:05:12.105Z,62.12
2023-05-01T02:06:12.340Z,62.04
2023-05-01T02:07:12.366Z,62.03
2023-05-01T02:08:12.473Z,61.93
2023-05-01T02:09:12.597Z,62.24
2023-05-01T02:10:12.814Z,62.18
2023-05-01T02:11:13.004Z,62.40
2023-05-01T02:12:13.104Z,62.52
2023-05-01T02:13:13.410Z,62.48
2023-05-01T02:14:13.437Z,62.54
2023-05-01T02:15:13.635Z,62.36
2023-05-01T02:16:13.846Z,62.31
2023-05-01T02:17:13.999Z,62.23
2023-05-01T02:18:14.067Z,62.09
2023-05-01T02:19:14.301Z,62.27
2023-05-01T02:20:14.502Z,62.15
2023-05-01T02:21:14.662Z,61.93
2023-05-01T02:22:14.855Z,62.06
2023-05-01T02:23:15.016Z,61.93
2023-05-01T02:24:15.167Z,61.95
2023-05-01T02:25:15.447Z,62.03
2023-05-01T02:26:15.456Z,62.03
2023-05-01T02:27:15.656Z,62.02
2023-05-01T02:28:15.936Z,61.98
2023-05-01T02:29:16.009Z,62.05
2023-05-01T02:30:16.214Z,61.98
2023-05-01T02:31:16.370Z,61.88
2023-05-01T02:32:16.521Z,61.77
2023-05-01T02:33:16.691Z,61.74
2023-05-01T02:34:16.838Z,61.64
2023-05-01T02:35:16.998Z,61.92
2023-05-01T02:36:17.180Z,61.84
2023-05-01T02:37:17.282Z,61.80
2023-05-01T02:38:17.439Z,61.72
2023-05-01T02:39:17.613Z,62.10
2023-05-01T02:40:17.799Z,62.54
2023-05-01T02:41:17.971Z,62.49
2023-05-01T02:42:18.145Z,62.59
2023-05-01T02:43:18.241Z,62.60
2023-05-01T02:44:18.446Z,62.58
2023-05-01T02:45:18.645Z,62.66
2023-05-01T02:46:18.586Z,62.57
2023-05-01T02:47:18.813Z,62.75
2023-05-01T02:48:18.843Z,62.70
2023-05-01T02:49:18.941Z,62.83
2023-05-01T02:50:19.350Z,62.89
2023-05-01T02:51:19.339Z,62.98
2023-05-01T02:52:19.452Z,62.64
2023-05-01T02:53:19.576Z,62.60
2023-05-01T02:54:19.759Z,62.88
2023-05-01T02:55:20.009Z,63.14
2023-05-01T02:56:20.128Z,62.99
2023-05-01T02:57:20.315Z,62.85
2023-05-01T02:58:20.520Z,62.93
2023-05-01T02:59:20.523Z,63.12
2023-05-01T03:00:20.793Z,63.01
2023-05-01T03:01:20.886Z,63.12
2023-05-01T03:02:21.072Z,63.12
2023-05-01T03:03:21.282Z,63.05
2023-05-01T03:04:21.404Z,62.92
2023-05-01T03:05:21.548Z,62.98
2023-05-01T03:06:21.688Z,62.96
2023-05-01T03:07:21.758Z,63.09
2023-05-01T03:08:21.997Z,63.47
2023-05-01T03:09:22.504Z,63.43
2023-05-01T03:10:21.953Z,63.45
2023-05-01T03:11:21.879Z,63.35
2023-05-01T03:12:21.778Z,63.39
2023-05-01T03:13:21.669Z,63.59
2023-05-01T03:14:21.767Z,63.47
2023-05-01T03:15:22.052Z,63.69
2023-05-01T03:16:22.139Z,63.58
2023-05-01T03:17:22.238Z,63.51
2023-05-01T03:18:22.507Z,63.39
2023-05-01T03:19:22.641Z,63.53
2023-05-01T03:20:22.779Z,63.65
2023-05-01T03:21:23.076Z,63.53
2023-05-01T03:22:23.244Z,63.76
2023-05-01T03:23:23.415Z,64.02
2023-05-01T03:24:23.678Z,63.97
2023-05-01T03:25:23.763Z,64.18
2023-05-01T03:26:23.954Z,64.23
2023-05-01T03:27:24.111Z,64.05
2023-05-01T03:28:24.407Z,63.80
2023-05-01T03:29:24.367Z,64.01
2023-05-01T03:30:24.539Z,63.88
2023-05-01T03:31:24.879Z,63.79
2023-05-01T03:32:24.958Z,63.59
2023-05-01T03:33:25.039Z,63.48
2023-05-01T03:34:25.190Z,63.59
2023-05-01T03:35:25.416Z,63.40
2023-05-01T03:36:25.570Z,63.34
2023-05-01T03:37:25.756Z,63.35
2023-05-01T03:38:25.997Z,63.60
2023-05-01T03:39:26.108Z,63.54
2023-05-01T03:40:26.249Z,63.64
2023-05-01T03:41:26.562Z,63.65
2023-05-01T03:42:26.637Z,63.66
2023-05-01T03:43:26.835Z,64.43
2023-05-01T03:44:26.976Z,64.16
2023-05-01T03:45:27.165Z,64.50
2023-05-01T03:46:27.475Z,64.31
2023-05-01T03:47:27.553Z,64.24
2023-05-01T03:48:27.857Z,64.06
2023-05-01T03:49:27.915Z,64.38
2023-05-01T03:50:28.035Z,64.34
2023-05-01T03:51:28.257Z,64.31
2023-05-01T03:52:28.371Z,64.53
2023-05-01T03:53:28.540Z,64.58
2023-05-01T03:54:28.712Z,64.47
2023-05-01T03:55:28.876Z,64.36
2023-05-01T03:56:29.124Z,64.38
2023-05-01T03:57:29.265Z,64.85
2023-05-01T03:58:29.488Z,64.91
2023-05-01T03:59:29.657Z,65.21
2023-05-01T04:00:29.803Z,65.06
2023-05-01T04:01:29.964Z,65.17
2023-05-01T04:02:30.248Z,64.96
2023-05-01T04:03:30.281Z,64.88
2023-05-01T04:04:30.585Z,64.57
2023-05-01T04:05:30.681Z,64.93
2023-05-01T04:06:30.891Z,65.12
2023-05-01T04:07:31.001Z,64.93
2023-05-01T04:08:31.154Z,64.97
2023-05-01T04:09:31.319Z,64.96
2023-05-01T04:10:31.498Z,64.92
2023-05-01T04:11:31.751Z,64.89
2023-05-01T04:12:31.847Z,64.97
2023-05-01T04:13:31.997Z,64.92
2023-05-01T04:14:32.168Z,65.00
2023-05-01T04:15:32.361Z,65.09
2023-05-01T04:16:32.717Z,65.43
2023-05-01T04:17:32.888Z,65.30
2023-05-01T04:18:32.972Z,65.39
2023-05-01T04:19:33.132Z,65.20
2023-05-01T04:20:33.351Z,65.46
2023-05-01T04:21:33.501Z,65.14
2023-05-01T04:22:33.743Z,65.06
2023-05-01T04:23:33.917Z,65.01
2023-05-01T04:24:34.111Z,65.10
2023-05-01T04:25:34.246Z,64.93
2023-05-01T04:26:34.497Z,64.84
2023-05-01T04:27:34.649Z,64.73
2023-05-01T04:28:34.898Z,65.06
2023-05-01T04:29:35.035Z,64.84
2023-05-01T04:30:35.181Z,65.13
2023-05-01T04:31:35.431Z,65.04
2023-05-01T04:32:35.697Z,64.98
2023-05-01T04:33:35.788Z,64.76
2023-05-01T04:34:35.944Z,64.61
2023-05-01T04:35:36.161Z,64.72
2023-05-01T04:36:36.298Z,64.85
2023-05-01T04:37:36.517Z,64.52
2023-05-01T04:38:36.806Z,64.65
2023-05-01T04:39:36.938Z,64.89
2023-05-01T04:40:37.083Z,64.46
2023-05-01T04:41:37.313Z,64.62
2023-05-01T04:42:37.528Z,64.63
2023-05-01T04:43:37.684Z,64.41
2023-05-01T04:44:37.915Z,64.42
2023-05-01T04:45:38.081Z,64.17
2023-05-01T04:46:38.357Z,64.29
2023-05-01T04:47:38.592Z,64.12
2023-05-01T04:48:38.729Z,64.32
2023-05-01T04:49:38.846Z,64.41
2023-05-01T04:50:39.084Z,64.48
2023-05-01T04:51:39.259Z,64.79
2023-05-01T04:52:39.438Z,64.64
2023-05-01T04:53:39.633Z,64.32
2023-05-01T04:54:39.823Z,64.68
2023-05-01T04:55:39.976Z,64.56
2023-05-01T04:56:40.151Z,64.75
2023-05-01T04:57:40.381Z,64.83
2023-05-01T04:58:40.532Z,65.04
2023-05-01T04:59:40.813Z,65.44
2023-05-01T05:00:40.956Z,65.21
2023-05-01T05:01:41.260Z,65.44
2023-05-01T05:02:41.365Z,65.27
2023-05-01T05:03:41.477Z,65.29
2023-05-01T05:04:41.565Z,65.20
2023-05-01T05:05:41.717Z,64.80
2023-05-01T05:06:41.978Z,64.75
2023-05-01T05:07:42.133Z,64.59
2023-05-01T05:08:42.302Z,64.39
2023-05-01T05:09:42.475Z,64.29
2023-05-01T05:10:42.640Z,64.07
2023-05-01T05:11:42.801Z,63.98
2023-05-01T05:12:42.913Z,63.87
2023-05-01T05:13:43.095Z,63.79
2023-05-01T05:14:43.306Z,63.84
2023-05-01T05:15:43.460Z,64.01
2023-05-01T05:16:43.823Z,64.05
2023-05-01T05:17:43.886Z,64.20
2023-05-01T05:18:44.003Z,64.55
2023-05-01T05:19:44.156Z,64.58
2023-05-01T05:20:44.302Z,65.19
2023-05-01T05:21:44.442Z,65.26
2023-05-01T05:22:44.654Z,65.12
2023-05-01T05:23:44.823Z,64.87
2023-05-01T05:24:44.929Z,64.80
2023-05-01T05:25:45.089Z,64.78
2023-05-01T05:26:45.540Z,64.86
2023-05-01T05:27:45.503Z,65.07
2023-05-01T05:28:45.700Z,65.00
2023-05-01T05:29:45.796Z,64.91
2023-05-01T05:30:46.046Z,64.78
2023-05-01T05:31:46.201Z,64.51
2023-05-01T05:32:46.390Z,64.13
2023-05-01T05:33:46.624Z,64.14
2023-05-01T05:34:46.809Z,64.20
2023-05-01T05:35:46.983Z,64.19
2023-05-01T05:36:47.325Z,64.05
2023-05-01T05:37:47.457Z,64.21
2023-05-01T05:38:47.690Z,64.43
2023-05-01T05:39:47.805Z,64.23
2023-05-01T05:40:48.045Z,63.85
2023-05-01T05:41:48.158Z,63.57
2023-05-01T05:42:48.397Z,63.76
2023-05-01T05:43:48.557Z,63.77
2023-05-01T05:44:48.781Z,63.74
2023-05-01T05:45:49.024Z,63.80
2023-05-01T05:46:49.151Z,63.76
2023-05-01T05:47:49.370Z,63.78
2023-05-01T05:48:49.578Z,63.74
2023-05-01T05:49:49.739Z,63.70
2023-05-01T05:50:49.898Z,63.43
2023-05-01T05:51:50.107Z,63.54
2023-05-01T05:52:50.282Z,63.52
2023-05-01T05:53:50.462Z,63.60
2023-05-01T05:54:50.850Z,63.66
2023-05-01T05:55:50.921Z,63.70
2023-05-01T05:56:51.079Z,63.60
2023-05-01T05:57:51.293Z,63.42
2023-05-01T05:58:51.514Z,63.47
2023-05-01T05:59:51.690Z,63.31
2023-05-01T06:00:51.860Z,63.26
2023-05-01T06:01:52.065Z,63.27
2023-05-01T06:02:52.249Z,63.31
2023-05-01T06:03:52.459Z,63.28
2023-05-01T06:04:52.622Z,63.60
2023-05-01T06:05:52.843Z,63.47
2023-05-01T06:06:53.050Z,63.71
2023-05-01T06:07:53.167Z,63.58
2023-05-01T06:08:53.349Z,63.59
2023-05-01T06:09:53.736Z,63.78
2023-05-01T06:10:53.709Z,63.73
2023-05-01T06:11:53.910Z,63.73
2023-05-01T06:12:58.581Z,63.74
2023-05-01T06:13:54.900Z,63.76
2023-05-01T06:14:53.806Z,63.78
2023-05-01T06:15:53.719Z,63.94
2023-05-01T06:16:53.716Z,63.48
2023-05-01T06:17:53.694Z,63.33
2023-05-01T06:18:53.523Z,63.46
2023-05-01T06:19:53.633Z,63.31
2023-05-01T06:20:53.324Z,63.15
2023-05-01T06:21:53.227Z,63.24
2023-05-01T06:22:53.133Z,63.24
2023-05-01T06:23:53.055Z,63.12
2023-05-01T06:24:53.061Z,63.28
2023-05-01T06:25:53.036Z,63.42
2023-05-01T06:26:52.970Z,63.53
2023-05-01T06:27:52.934Z,63.59
2023-05-01T06:28:52.990Z,63.50
2023-05-01T06:29:53.319Z,63.78
2023-05-01T06:30:53.432Z,63.89
2023-05-01T06:31:53.568Z,63.96
2023-05-01T06:32:53.738Z,64.07
2023-05-01T06:33:53.796Z,63.93
2023-05-01T06:34:53.956Z,63.75
2023-05-01T06:35:54.178Z,63.63
2023-05-01T06:36:54.371Z,63.69
2023-05-01T06:37:54.535Z,63.53
2023-05-01T06:38:54.722Z,62.77
2023-05-01T06:39:55.302Z,62.86
2023-05-01T06:40:54.865Z,63.30
2023-05-01T06:41:54.849Z,63.19
2023-05-01T06:42:54.803Z,63.31
2023-05-01T06:43:54.760Z,63.27
2023-05-01T06:44:54.728Z,63.29
2023-05-01T06:45:54.687Z,63.37
2023-05-01T06:46:54.711Z,63.40
2023-05-01T06:47:54.691Z,63.39
2023-05-01T06:48:54.594Z,63.16
2023-05-01T06:49:54.752Z,63.46
2023-05-01T06:50:54.696Z,63.06
2023-05-01T06:51:54.963Z,62.60
2023-05-01T06:52:55.115Z,62.66
2023-05-01T06:53:55.231Z,62.49
2023-05-01T06:54:55.516Z,62.79
2023-05-01T06:55:55.708Z,63.00
2023-05-01T06:56:55.891Z,62.93
2023-05-01T06:57:56.052Z,62.82
2023-05-01T06:58:56.244Z,62.99
2023-05-01T06:59:56.691Z,62.82
2023-05-01T07:00:56.591Z,63.02
2023-05-01T07:01:56.895Z,63.23
2023-05-01T07:02:57.246Z,63.17
2023-05-01T07:03:57.131Z,63.60
2023-05-01T07:04:57.321Z,63.72
2023-05-01T07:05:57.486Z,64.06
2023-05-01T07:06:57.706Z,64.21
2023-05-01T07:08:01.599Z,63.83
2023-05-01T07:08:57.753Z,64.07
2023-05-01T07:09:57.969Z,63.65
2023-05-01T07:10:57.567Z,63.64
2023-05-01T07:11:57.571Z,63.58
2023-05-01T07:12:57.372Z,63.70
2023-05-01T07:13:57.281Z,63.69
2023-05-01T07:14:57.172Z,63.68
2023-05-01T07:15:57.111Z,63.79
2023-05-01T07:16:57.150Z,63.86
2023-05-01T07:17:57.269Z,63.98
2023-05-01T07:18:57.418Z,64.21
2023-05-01T07:19:57.742Z,64.00
2023-05-01T07:20:57.669Z,64.15
2023-05-01T07:21:57.861Z,63.68
2023-05-01T07:22:58.054Z,63.68
2023-05-01T07:23:58.191Z,63.58
2023-05-01T07:24:58.315Z,63.53
2023-05-01T07:25:58.480Z,63.84
2023-05-01T07:26:58.663Z,64.20
2023-05-01T07:27:58.773Z,64.07
2023-05-01T07:28:58.899Z,64.17
2023-05-01T07:29:59.224Z,64.06
2023-05-01T07:30:59.220Z,64.31
2023-05-01T07:31:59.591Z,64.16
2023-05-01T07:32:59.547Z,64.13
2023-05-01T07:33:59.597Z,64.15
2023-05-01T07:34:59.716Z,64.19
2023-05-01T07:35:59.881Z,64.78
2023-05-01T07:37:00.033Z,64.71
2023-05-01T07:38:00.164Z,64.66
2023-05-01T07:39:00.277Z,64.64
2023-05-01T07:40:00.413Z,64.41
2023-05-01T07:41:00.547Z,64.18
2023-05-01T07:42:00.693Z,63.85
2023-05-01T07:43:00.843Z,63.61
2023-05-01T07:44:00.986Z,63.31
2023-05-01T07:45:01.214Z,63.37
2023-05-01T07:46:01.296Z,63.49
2023-05-01T07:47:01.432Z,63.55
2023-05-01T07:48:01.682Z,63.46
2023-05-01T07:49:01.824Z,63.26
2023-05-01T07:50:01.982Z,63.33
2023-05-01T07:51:02.094Z,63.33
2023-05-01T07:52:02.355Z,63.02
2023-05-01T07:53:02.534Z,63.13
2023-05-01T07:54:02.684Z,63.17
2023-05-01T07:55:02.877Z,63.34
2023-05-01T07:56:02.969Z,63.56
2023-05-01T07:57:03.123Z,63.28
2023-05-01T07:58:03.269Z,63.02
2023-05-01T07:59:03.440Z,63.16
2023-05-01T08:00:03.608Z,63.01
2023-05-01T08:01:03.742Z,63.14
2023-05-01T08:02:03.953Z,63.38
2023-05-01T08:03:04.114Z,62.84
2023-05-01T08:04:04.314Z,62.70
2023-05-01T08:05:04.438Z,62.49
2023-05-01T08:06:04.581Z,62.29
2023-05-01T08:07:04.792Z,62.30
2023-05-01T08:08:04.900Z,62.47
2023-05-01T08:09:05.120Z,62.64
2023-05-01T08:10:05.490Z,62.74
2023-05-01T08:11:05.447Z,62.54
2023-05-01T08:12:05.587Z,62.32
2023-05-01T08:13:05.794Z,62.37
2023-05-01T08:14:05.953Z,62.72
2023-05-01T08:15:06.068Z,62.97
2023-05-01T08:16:06.259Z,63.31
2023-05-01T08:17:06.460Z,63.13
2023-05-01T08:18:06.605Z,62.78
2023-05-01T08:19:06.684Z,62.62
2023-05-01T08:20:06.821Z,62.61
2023-05-01T08:21:06.938Z,62.52
2023-05-01T08:22:07.058Z,62.18
2023-05-01T08:23:07.224Z,62.01
2023-05-01T08:24:07.432Z,62.27
2023-05-01T08:25:07.523Z,62.62
2023-05-01T08:26:07.739Z,62.29
2023-05-01T08:27:07.878Z,61.70
2023-05-01T08:28:08.075Z,61.52
2023-05-01T08:29:08.263Z,61.58
2023-05-01T08:30:08.362Z,61.67
2023-05-01T08:31:08.562Z,61.58
2023-05-01T08:32:09.386Z,61.89
2023-05-01T08:33:08.288Z,61.95
2023-05-01T08:34:08.131Z,61.81
2023-05-01T08:35:08.057Z,61.60
2023-05-01T08:36:07.949Z,61.13
2023-05-01T08:37:07.797Z,61.18
2023-05-01T08:38:07.676Z,61.12
2023-05-01T08:39:07.553Z,61.62
2023-05-01T08:40:07.430Z,61.22
2023-05-01T08:41:07.315Z,60.99
2023-05-01T08:42:07.183Z,61.15
2023-05-01T08:43:07.205Z,61.05
2023-05-01T08:44:07.075Z,61.01
2023-05-01T08:45:06.930Z,60.80
2023-05-01T08:46:06.842Z,61.07
2023-05-01T08:47:06.779Z,61.53
2023-05-01T08:48:06.672Z,61.14
2023-05-01T08:49:06.473Z,61.00
2023-05-01T08:50:06.349Z,60.95
2023-05-01T08:51:07.236Z,60.94
2023-05-01T08:52:06.106Z,60.66
2023-05-01T08:53:05.968Z,60.48
2023-05-01T08:54:05.855Z,60.39
2023-05-01T08:55:05.748Z,59.96
2023-05-01T08:56:05.596Z,59.66
2023-05-01T08:57:05.467Z,59.77
2023-05-01T08:58:05.338Z,59.81
2023-05-01T08:59:05.271Z,59.84
2023-05-01T09:00:05.081Z,59.81
2023-05-01T09:01:04.972Z,59.76
2023-05-01T09:02:04.923Z,59.60
2023-05-01T09:03:04.919Z,58.80
2023-05-01T09:04:04.797Z,58.59
2023-05-01T09:05:04.603Z,58.55
2023-05-01T09:06:04.626Z,58.36
2023-05-01T09:07:04.494Z,58.35
2023-05-01T09:08:04.415Z,58.50
2023-05-01T09:09:04.363Z,58.58
2023-05-01T09:10:04.318Z,58.20
2023-05-01T09:11:04.194Z,58.30
2023-05-01T09:12:04.145Z,58.44
2023-05-01T09:13:04.065Z,58.25
2023-05-01T09:14:04.040Z,58.34
2023-05-01T09:15:03.871Z,58.75
2023-05-01T09:16:03.819Z,57.73
2023-05-01T09:17:03.731Z,58.20
2023-05-01T09:18:04.111Z,57.30
2023-05-01T09:19:03.601Z,56.41
2023-05-01T09:20:03.514Z,55.89
2023-05-01T09:21:03.530Z,55.66
2023-05-01T09:22:03.407Z,56.19
2023-05-01T09:23:03.339Z,56.80
2023-05-01T09:24:03.263Z,56.33
2023-05-01T09:25:03.201Z,56.06
2023-05-01T09:26:03.119Z,55.45
2023-05-01T09:27:03.074Z,55.35
2023-05-01T09:28:03.007Z,55.76
2023-05-01T09:29:02.920Z,55.42
2023-05-01T09:30:02.817Z,55.51
2023-05-01T09:31:02.740Z,55.66
2023-05-01T09:32:02.722Z,55.10
2023-05-01T09:33:02.616Z,54.81
2023-05-01T09:34:02.651Z,54.61
2023-05-01T09:35:02.759Z,54.96
2023-05-01T09:36:02.890Z,55.22
2023-05-01T09:37:03.180Z,55.60
2023-05-01T09:38:03.198Z,55.96
2023-05-01T09:39:03.349Z,56.24
2023-05-01T09:40:03.549Z,55.99
2023-05-01T09:41:03.628Z,56.11
2023-05-01T09:42:04.597Z,56.19
2023-05-01T09:43:03.708Z,56.00
2023-05-01T09:44:03.654Z,53.74
2023-05-01T09:45:03.562Z,53.53
2023-05-01T09:46:03.598Z,55.09
2023-05-01T09:47:03.458Z,55.01
2023-05-01T09:48:03.470Z,55.01
2023-05-01T09:49:03.290Z,54.43
2023-05-01T09:50:03.245Z,54.70
2023-05-01T09:51:03.116Z,54.84
2023-05-01T09:52:03.006Z,54.94
2023-05-01T09:53:02.902Z,55.44
2023-05-01T09:54:02.852Z,54.74
2023-05-01T09:55:02.712Z,54.16
2023-05-01T09:56:02.601Z,54.43
2023-05-01T09:57:02.505Z,54.65
2023-05-01T09:58:02.404Z,54.63
2023-05-01T09:59:02.270Z,53.95
2023-05-01T10:00:02.348Z,53.98
2023-05-01T10:01:02.550Z,53.68
2023-05-01T10:02:02.694Z,53.61
2023-05-01T10:03:02.941Z,53.58
2023-05-01T10:04:02.989Z,53.84
2023-05-01T10:05:03.218Z,54.66
2023-05-01T10:06:03.326Z,54.50
2023-05-01T10:07:03.502Z,54.51
2023-05-01T10:08:03.714Z,54.22
2023-05-01T10:09:03.714Z,54.44
2023-05-01T10:10:04.100Z,53.08
2023-05-01T10:11:03.713Z,51.87
2023-05-01T10:12:03.551Z,51.42
2023-05-01T10:13:03.401Z,50.91
2023-05-01T10:14:03.287Z,50.97
2023-05-01T10:15:10.780Z,51.78
2023-05-01T10:16:03.968Z,52.32
2023-05-01T10:17:02.827Z,52.51
2023-05-01T10:18:02.820Z,51.68
2023-05-01T10:19:04.316Z,52.43
2023-05-01T10:20:02.482Z,51.16
2023-05-01T10:21:02.449Z,51.22
2023-05-01T10:22:02.593Z,51.01
2023-05-01T10:23:02.741Z,50.78
2023-05-01T10:24:02.881Z,50.01
2023-05-01T10:25:02.947Z,50.09
2023-05-01T10:26:04.093Z,50.42
2023-05-01T10:27:03.040Z,50.28
2023-05-01T10:28:02.935Z,50.53
2023-05-01T10:29:02.982Z,50.78
2023-05-01T10:30:02.740Z,50.50
2023-05-01T10:31:02.666Z,50.69
2023-05-01T10:32:02.793Z,50.41
2023-05-01T10:33:02.509Z,50.38
2023-05-01T10:34:02.275Z,50.40
2023-05-01T10:35:02.127Z,50.11
2023-05-01T10:36:02.064Z,50.12
2023-05-01T10:37:01.839Z,49.88
2023-05-01T10:38:01.728Z,49.45
2023-05-01T10:39:01.580Z,49.34
2023-05-01T10:40:01.394Z,49.68
2023-05-01T10:41:01.341Z,49.37
2023-05-01T10:42:01.116Z,49.44
2023-05-01T10:43:00.963Z,49.49
2023-05-01T10:44:00.866Z,49.35
2023-05-01T10:45:01.082Z,48.69
2023-05-01T10:46:00.975Z,48.76
2023-05-01T10:47:01.146Z,48.77
2023-05-01T10:48:01.304Z,48.86
2023-05-01T10:49:01.339Z,48.55
2023-05-01T10:50:01.424Z,48.38
2023-05-01T10:51:01.557Z,48.89
2023-05-01T10:52:01.688Z,48.77
2023-05-01T10:53:01.843Z,48.34
2023-05-01T10:54:01.978Z,48.70
2023-05-01T10:55:02.406Z,49.36
2023-05-01T10:56:02.241Z,49.40
2023-05-01T10:57:02.371Z,48.91
2023-05-01T10:58:02.503Z,48.86
2023-05-01T10:59:02.591Z,48.27
2023-05-01T11:00:02.722Z,47.84
2023-05-01T11:01:02.907Z,48.34
2023-05-01T11:02:02.976Z,48.29
2023-05-01T11:03:03.200Z,48.44
2023-05-01T11:04:03.313Z,48.29
2023-05-01T11:05:03.515Z,48.21
2023-05-01T11:06:03.807Z,48.00
2023-05-01T11:07:03.788Z,47.74
2023-05-01T11:08:03.798Z,48.56
2023-05-01T11:09:03.973Z,48.58
2023-05-01T11:10:04.079Z,49.01
2023-05-01T11:11:04.314Z,49.23
2023-05-01T11:12:04.417Z,49.14
2023-05-01T11:13:04.533Z,49.56
2023-05-01T11:14:04.780Z,48.93
2023-05-01T11:15:04.912Z,49.48
2023-05-01T11:16:05.104Z,49.33
2023-05-01T11:17:05.218Z,48.62
2023-05-01T11:18:05.399Z,48.75
2023-05-01T11:19:05.515Z,49.16
2023-05-01T11:20:05.697Z,49.07
2023-05-01T11:21:05.810Z,48.98
2023-05-01T11:22:05.978Z,48.97
2023-05-01T11:23:06.090Z,48.95
2023-05-01T11:24:06.218Z,49.06
2023-05-01T11:25:06.356Z,48.54
2023-05-01T11:26:06.531Z,48.72
2023-05-01T11:27:06.659Z,48.87
2023-05-01T11:28:07.018Z,48.66
2023-05-01T11:29:06.923Z,48.83
2023-05-01T11:30:07.143Z,49.68
2023-05-01T11:31:07.304Z,49.93
2023-05-01T11:32:07.481Z,49.24
2023-05-01T11:33:10.217Z,48.76
2023-05-01T11:34:07.531Z,48.62
2023-05-01T11:35:07.308Z,48.63
2023-05-01T11:36:07.188Z,48.90
2023-05-01T11:37:07.076Z,49.39
2023-05-01T11:38:07.056Z,49.79
2023-05-01T11:39:06.771Z,49.92
2023-05-01T11:40:06.661Z,50.12
2023-05-01T11:41:06.553Z,50.04
2023-05-01T11:42:06.535Z,50.77
2023-05-01T11:43:06.294Z,50.75
2023-05-01T11:44:06.174Z,50.70
2023-05-01T11:45:06.142Z,50.57
2023-05-01T11:46:06.311Z,50.77
2023-05-01T11:47:06.476Z,50.73
2023-05-01T11:48:06.564Z,51.20
2023-05-01T11:49:06.731Z,50.83
2023-05-01T11:50:06.835Z,51.21
2023-05-01T11:51:06.970Z,51.31
2023-05-01T11:52:07.118Z,51.52
2023-05-01T11:53:07.256Z,51.27
2023-05-01T11:54:07.437Z,51.12
2023-05-01T11:55:07.535Z,51.12
2023-05-01T11:56:19.467Z,50.42
2023-05-01T11:57:08.567Z,50.66
2023-05-01T11:58:07.373Z,50.74
2023-05-01T11:59:07.211Z,50.71
2023-05-01T12:00:07.053Z,50.99
2023-05-01T12:01:07.012Z,51.20
2023-05-01T12:02:06.822Z,51.33
2023-05-01T12:03:06.931Z,51.37
2023-05-01T12:04:06.641Z,51.31
2023-05-01T12:05:06.386Z,51.44
2023-05-01T12:06:06.218Z,51.54
2023-05-01T12:07:06.071Z,51.51
2023-05-01T12:08:05.927Z,51.28
2023-05-01T12:09:05.837Z,51.54
2023-05-01T12:10:05.652Z,51.69
2023-05-01T12:11:05.494Z,51.97
2023-05-01T12:12:05.341Z,51.88
2023-05-01T12:13:05.277Z,51.97
2023-05-01T12:14:05.114Z,52.33
2023-05-01T12:15:05.091Z,52.45
2023-05-01T12:16:04.892Z,52.85
2023-05-01T12:17:04.932Z,53.30
2023-05-01T12:18:04.752Z,53.57
2023-05-01T12:19:04.595Z,54.05
2023-05-01T12:20:04.531Z,54.51
2023-05-01T12:21:04.635Z,55.33
2023-05-01T12:22:04.710Z,55.65
2023-05-01T12:23:04.899Z,56.04
2023-05-01T12:24:05.046Z,56.66
2023-05-01T12:25:05.435Z,57.36
2023-05-01T12:26:05.452Z,57.67
2023-05-01T12:27:05.550Z,57.80
2023-05-01T12:28:05.798Z,58.34
2023-05-01T12:29:05.948Z,58.49
2023-05-01T12:30:06.090Z,58.94
2023-05-01T12:31:06.249Z,59.23
2023-05-01T12:32:06.518Z,59.53
2023-05-01T12:33:06.611Z,59.57
2023-05-01T12:34:06.719Z,59.84
2023-05-01T12:35:06.952Z,60.57
2023-05-01T12:36:07.035Z,60.81
2023-05-01T12:37:07.174Z,61.09
2023-05-01T12:38:07.421Z,61.09
2023-05-01T12:39:07.499Z,61.07
2023-05-01T12:40:07.793Z,61.55
2023-05-01T12:41:07.931Z,62.04
2023-05-01T12:42:08.050Z,61.99
2023-05-01T12:43:08.206Z,62.44
2023-05-01T12:44:08.369Z,62.73
2023-05-01T12:45:08.542Z,62.59
2023-05-01T12:46:08.757Z,62.52
2023-05-01T12:47:08.894Z,62.32
2023-05-01T12:48:09.153Z,62.45
2023-05-01T12:49:09.248Z,62.41
2023-05-01T12:50:09.362Z,62.70
2023-05-01T12:51:09.516Z,62.42
2023-05-01T12:52:09.681Z,62.19
2023-05-01T12:53:09.804Z,61.83
2023-05-01T12:54:09.939Z,61.77